sensor_id;sensor_type;location;lat;lon;timestamp;temperature;humidity
6538;DHT22;3302;52.508;13.454;2023-08-12T00:01:23;19.20;99.90
6538;DHT22;3302;52.508;13.454;2023-08-12T00:03:51;19.10;99.90
6538;DHT22;3302;52.508;13.454;2023-08-12T00:06:16;19.10;99.90
6538;DHT22;3302;52.508;13.454;2023-08-12T00:08:42;19.10;99.90
6538;DHT22;3302;52.508;13.454;2023-08-12T00:11:08;19.10;99.90
6538;DHT22;3302;52.508;13.454;2023-08-12T00:13:34;19.10;99.90
6538;DHT22;3302;52.508;13.454;2023-08-12T00:16:00;19.00;99.90
6538;DHT22;3302;52.508;13.454;2023-08-12T00:18:26;19.00;99.90
6538;DHT22;3302;52.508;13.454;2023-08-12T00:20:51;19.10;99.90
6538;DHT22;3302;52.508;13.454;2023-08-12T00:23:18;19.00;99.90
6538;DHT22;3302;52.508;13.454;2023-08-12T00:25:44;19.00;99.90
6538;DHT22;3302;52.508;13.454;2023-08-12T00:28:10;18.90;99.90
6538;DHT22;3302;52.508;13.454;2023-08-12T00:30:35;18.90;99.90
6538;DHT22;3302;52.508;13.454;2023-08-12T00:33:01;18.90;99.90
6538;DHT22;3302;52.508;13.454;2023-08-12T00:35:27;18.90;99.90
6538;DHT22;3302;52.508;13.454;2023-08-12T00:37:53;18.90;99.90
6538;DHT22;3302;52.508;13.454;2023-08-12T00:40:19;18.90;99.90
6538;DHT22;3302;52.508;13.454;2023-08-12T00:42:45;18.90;99.90
6538;DHT22;3302;52.508;13.454;2023-08-12T00:45:12;18.90;99.90
6538;DHT22;3302;52.508;13.454;2023-08-12T00:47:38;18.90;99.90
6538;DHT22;3302;52.508;13.454;2023-08-12T00:50:09;18.90;99.90
6538;DHT22;3302;52.508;13.454;2023-08-12T00:52:36;18.80;99.90
6538;DHT22;3302;52.508;13.454;2023-08-12T00:55:03;18.80;99.90
6538;DHT22;3302;52.508;13.454;2023-08-12T00:57:29;18.80;99.90
6538;DHT22;3302;52.508;13.454;2023-08-12T00:59:56;18.80;99.90
6538;DHT22;3302;52.508;13.454;2023-08-12T01:02:21;18.80;99.90
6538;DHT22;3302;52.508;13.454;2023-08-12T01:04:47;18.80;99.90
6538;DHT22;3302;52.508;13.454;2023-08-12T01:07:13;18.80;99.90
6538;DHT22;3302;52.508;13.454;2023-08-12T01:09:39;18.80;99.90
6538;DHT22;3302;52.508;13.454;2023-08-12T01:12:12;18.70;99.90
6538;DHT22;3302;52.508;13.454;2023-08-12T01:14:52;18.70;99.90
6538;DHT22;3302;52.508;13.454;2023-08-12T01:17:21;18.70;99.90
6538;DHT22;3302;52.508;13.454;2023-08-12T01:19:47;18.70;99.90
6538;DHT22;3302;52.508;13.454;2023-08-12T01:22:14;18.70;99.90
6538;DHT22;3302;52.508;13.454;2023-08-12T01:24:45;18.70;99.90
6538;DHT22;3302;52.508;13.454;2023-08-12T01:27:12;18.70;99.90
6538;DHT22;3302;52.508;13.454;2023-08-12T01:29:44;18.60;99.90
6538;DHT22;3302;52.508;13.454;2023-08-12T01:32:43;18.60;99.90
6538;DHT22;3302;52.508;13.454;2023-08-12T01:37:43;18.70;99.90
6538;DHT22;3302;52.508;13.454;2023-08-12T01:40:10;18.60;99.90
6538;DHT22;3302;52.508;13.454;2023-08-12T01:42:38;18.60;99.90
6538;DHT22;3302;52.508;13.454;2023-08-12T01:45:05;18.60;99.90
6538;DHT22;3302;52.508;13.454;2023-08-12T01:47:31;18.60;99.90
6538;DHT22;3302;52.508;13.454;2023-08-12T01:49:58;18.60;99.90
6538;DHT22;3302;52.508;13.454;2023-08-12T01:52:24;18.50;99.90
6538;DHT22;3302;52.508;13.454;2023-08-12T01:54:50;18.50;99.90
6538;DHT22;3302;52.508;13.454;2023-08-12T01:57:16;18.50;99.90
6538;DHT22;3302;52.508;13.454;2023-08-12T01:59:42;18.50;99.90
6538;DHT22;3302;52.508;13.454;2023-08-12T02:02:10;18.50;99.90
6538;DHT22;3302;52.508;13.454;2023-08-12T02:04:36;18.50;99.90
6538;DHT22;3302;52.508;13.454;2023-08-12T02:07:03;18.50;99.90
6538;DHT22;3302;52.508;13.454;2023-08-12T02:09:29;18.50;99.90
6538;DHT22;3302;52.508;13.454;2023-08-12T02:11:56;18.40;99.90
6538;DHT22;3302;52.508;13.454;2023-08-12T02:14:22;18.50;99.90
6538;DHT22;3302;52.508;13.454;2023-08-12T02:16:48;18.50;99.90
6538;DHT22;3302;52.508;13.454;2023-08-12T02:19:14;18.50;99.90
6538;DHT22;3302;52.508;13.454;2023-08-12T02:21:41;18.40;99.90
6538;DHT22;3302;52.508;13.454;2023-08-12T02:24:07;18.40;99.90
6538;DHT22;3302;52.508;13.454;2023-08-12T02:26:34;18.40;99.90
6538;DHT22;3302;52.508;13.454;2023-08-12T02:28:59;18.40;99.90
6538;DHT22;3302;52.508;13.454;2023-08-12T02:31:25;18.40;99.90
6538;DHT22;3302;52.508;13.454;2023-08-12T02:33:51;18.40;99.90
6538;DHT22;3302;52.508;13.454;2023-08-12T02:36:17;18.40;99.90
6538;DHT22;3302;52.508;13.454;2023-08-12T02:38:43;18.40;99.90
6538;DHT22;3302;52.508;13.454;2023-08-12T02:41:09;18.40;99.90
6538;DHT22;3302;52.508;13.454;2023-08-12T02:43:34;18.30;99.90
6538;DHT22;3302;52.508;13.454;2023-08-12T02:46:00;18.30;99.90
6538;DHT22;3302;52.508;13.454;2023-08-12T02:48:26;18.30;99.90
6538;DHT22;3302;52.508;13.454;2023-08-12T02:50:52;18.30;99.90
6538;DHT22;3302;52.508;13.454;2023-08-12T02:53:18;18.30;99.90
6538;DHT22;3302;52.508;13.454;2023-08-12T02:55:47;18.30;99.90
6538;DHT22;3302;52.508;13.454;2023-08-12T02:58:12;18.30;99.90
6538;DHT22;3302;52.508;13.454;2023-08-12T03:00:41;18.30;99.90
6538;DHT22;3302;52.508;13.454;2023-08-12T03:03:09;18.30;99.90
6538;DHT22;3302;52.508;13.454;2023-08-12T03:05:35;18.30;99.90
6538;DHT22;3302;52.508;13.454;2023-08-12T03:08:01;18.30;99.90
6538;DHT22;3302;52.508;13.454;2023-08-12T03:10:29;18.20;99.90
6538;DHT22;3302;52.508;13.454;2023-08-12T03:12:55;18.20;99.90
6538;DHT22;3302;52.508;13.454;2023-08-12T03:15:21;18.20;99.90
6538;DHT22;3302;52.508;13.454;2023-08-12T03:17:47;18.20;99.90
6538;DHT22;3302;52.508;13.454;2023-08-12T03:20:13;18.20;99.90
6538;DHT22;3302;52.508;13.454;2023-08-12T03:22:38;18.20;99.90
6538;DHT22;3302;52.508;13.454;2023-08-12T03:25:05;18.10;99.90
6538;DHT22;3302;52.508;13.454;2023-08-12T03:27:31;18.10;99.90
6538;DHT22;3302;52.508;13.454;2023-08-12T03:29:57;18.10;99.90
6538;DHT22;3302;52.508;13.454;2023-08-12T03:32:24;18.10;99.90
6538;DHT22;3302;52.508;13.454;2023-08-12T03:34:51;18.10;99.90
6538;DHT22;3302;52.508;13.454;2023-08-12T03:37:17;18.10;99.90
6538;DHT22;3302;52.508;13.454;2023-08-12T03:39:43;18.00;99.90
6538;DHT22;3302;52.508;13.454;2023-08-12T03:42:08;18.00;99.90
6538;DHT22;3302;52.508;13.454;2023-08-12T03:44:34;17.90;99.90
6538;DHT22;3302;52.508;13.454;2023-08-12T03:47:00;17.90;99.90
6538;DHT22;3302;52.508;13.454;2023-08-12T03:49:26;17.90;99.90
6538;DHT22;3302;52.508;13.454;2023-08-12T03:51:52;17.90;99.90
6538;DHT22;3302;52.508;13.454;2023-08-12T03:54:18;17.90;99.90
6538;DHT22;3302;52.508;13.454;2023-08-12T03:56:44;17.90;99.90
6538;DHT22;3302;52.508;13.454;2023-08-12T03:59:09;17.80;99.90
6538;DHT22;3302;52.508;13.454;2023-08-12T04:01:36;17.90;99.90
6538;DHT22;3302;52.508;13.454;2023-08-12T04:04:02;17.90;99.90
6538;DHT22;3302;52.508;13.454;2023-08-12T04:06:28;17.80;99.90
6538;DHT22;3302;52.508;13.454;2023-08-12T04:08:55;17.80;99.90
6538;DHT22;3302;52.508;13.454;2023-08-12T04:11:21;17.90;99.90
6538;DHT22;3302;52.508;13.454;2023-08-12T04:13:47;17.80;99.90
6538;DHT22;3302;52.508;13.454;2023-08-12T04:16:12;17.80;99.90
6538;DHT22;3302;52.508;13.454;2023-08-12T04:18:38;17.80;99.90
6538;DHT22;3302;52.508;13.454;2023-08-12T04:21:04;17.80;99.90
6538;DHT22;3302;52.508;13.454;2023-08-12T04:23:30;17.70;99.90
6538;DHT22;3302;52.508;13.454;2023-08-12T04:25:56;17.80;99.90
6538;DHT22;3302;52.508;13.454;2023-08-12T04:28:22;17.70;99.90
6538;DHT22;3302;52.508;13.454;2023-08-12T04:30:48;17.70;99.90
6538;DHT22;3302;52.508;13.454;2023-08-12T04:33:16;17.70;99.90
6538;DHT22;3302;52.508;13.454;2023-08-12T04:35:42;17.80;99.90
6538;DHT22;3302;52.508;13.454;2023-08-12T04:38:08;17.80;99.90
6538;DHT22;3302;52.508;13.454;2023-08-12T04:40:37;17.90;99.90
6538;DHT22;3302;52.508;13.454;2023-08-12T04:43:03;17.90;99.90
6538;DHT22;3302;52.508;13.454;2023-08-12T04:45:29;17.90;99.90
6538;DHT22;3302;52.508;13.454;2023-08-12T04:47:56;17.90;99.90
6538;DHT22;3302;52.508;13.454;2023-08-12T04:50:22;17.90;99.90
6538;DHT22;3302;52.508;13.454;2023-08-12T04:52:48;18.00;99.90
6538;DHT22;3302;52.508;13.454;2023-08-12T04:55:14;18.00;99.90
6538;DHT22;3302;52.508;13.454;2023-08-12T04:57:41;18.00;99.90
6538;DHT22;3302;52.508;13.454;2023-08-12T05:00:07;18.00;99.90
6538;DHT22;3302;52.508;13.454;2023-08-12T05:02:34;18.00;99.90
6538;DHT22;3302;52.508;13.454;2023-08-12T05:05:00;18.20;99.90
6538;DHT22;3302;52.508;13.454;2023-08-12T05:07:26;18.20;99.90
6538;DHT22;3302;52.508;13.454;2023-08-12T05:09:53;18.20;99.90
6538;DHT22;3302;52.508;13.454;2023-08-12T05:12:19;18.40;99.90
6538;DHT22;3302;52.508;13.454;2023-08-12T05:14:45;18.50;99.90
6538;DHT22;3302;52.508;13.454;2023-08-12T05:17:10;18.50;99.90
6538;DHT22;3302;52.508;13.454;2023-08-12T05:19:36;18.50;99.90
6538;DHT22;3302;52.508;13.454;2023-08-12T05:22:02;18.50;99.90
6538;DHT22;3302;52.508;13.454;2023-08-12T05:24:29;18.60;99.90
6538;DHT22;3302;52.508;13.454;2023-08-12T05:26:55;18.70;99.90
6538;DHT22;3302;52.508;13.454;2023-08-12T05:29:21;18.70;99.90
6538;DHT22;3302;52.508;13.454;2023-08-12T05:31:47;18.80;99.90
6538;DHT22;3302;52.508;13.454;2023-08-12T05:34:13;18.90;99.90
6538;DHT22;3302;52.508;13.454;2023-08-12T05:36:39;19.00;99.90
6538;DHT22;3302;52.508;13.454;2023-08-12T05:39:04;19.10;99.90
6538;DHT22;3302;52.508;13.454;2023-08-12T05:41:30;19.20;99.90
6538;DHT22;3302;52.508;13.454;2023-08-12T05:43:56;19.30;99.90
6538;DHT22;3302;52.508;13.454;2023-08-12T05:46:22;19.40;99.60
6538;DHT22;3302;52.508;13.454;2023-08-12T05:48:47;19.40;99.90
6538;DHT22;3302;52.508;13.454;2023-08-12T05:51:13;19.50;99.50
6538;DHT22;3302;52.508;13.454;2023-08-12T05:53:39;19.60;99.40
6538;DHT22;3302;52.508;13.454;2023-08-12T05:56:05;19.60;99.40
6538;DHT22;3302;52.508;13.454;2023-08-12T05:58:30;19.60;99.40
6538;DHT22;3302;52.508;13.454;2023-08-12T06:00:56;19.70;99.30
6538;DHT22;3302;52.508;13.454;2023-08-12T06:03:22;19.70;99.90
6538;DHT22;3302;52.508;13.454;2023-08-12T06:05:48;19.80;99.40
6538;DHT22;3302;52.508;13.454;2023-08-12T06:08:14;19.80;99.50
6538;DHT22;3302;52.508;13.454;2023-08-12T06:10:41;19.80;99.30
6538;DHT22;3302;52.508;13.454;2023-08-12T06:13:07;19.90;99.20
6538;DHT22;3302;52.508;13.454;2023-08-12T06:15:33;19.90;98.80
6538;DHT22;3302;52.508;13.454;2023-08-12T06:18:00;20.00;98.80
6538;DHT22;3302;52.508;13.454;2023-08-12T06:20:26;20.10;98.60
6538;DHT22;3302;52.508;13.454;2023-08-12T06:22:52;20.20;98.30
6538;DHT22;3302;52.508;13.454;2023-08-12T06:25:18;20.30;98.40
6538;DHT22;3302;52.508;13.454;2023-08-12T06:27:45;20.30;98.10
6538;DHT22;3302;52.508;13.454;2023-08-12T06:30:13;20.30;98.10
6538;DHT22;3302;52.508;13.454;2023-08-12T06:32:39;20.40;98.10
6538;DHT22;3302;52.508;13.454;2023-08-12T06:35:05;20.40;97.90
6538;DHT22;3302;52.508;13.454;2023-08-12T06:37:31;20.50;97.80
6538;DHT22;3302;52.508;13.454;2023-08-12T06:39:57;20.50;97.70
6538;DHT22;3302;52.508;13.454;2023-08-12T06:42:23;20.60;97.60
6538;DHT22;3302;52.508;13.454;2023-08-12T06:44:56;20.70;97.70
6538;DHT22;3302;52.508;13.454;2023-08-12T06:47:22;20.70;97.20
6538;DHT22;3302;52.508;13.454;2023-08-12T06:49:48;20.70;97.30
6538;DHT22;3302;52.508;13.454;2023-08-12T06:52:14;20.80;97.40
6538;DHT22;3302;52.508;13.454;2023-08-12T06:54:41;20.70;97.00
6538;DHT22;3302;52.508;13.454;2023-08-12T06:57:07;20.70;97.30
6538;DHT22;3302;52.508;13.454;2023-08-12T06:59:33;20.80;97.40
6538;DHT22;3302;52.508;13.454;2023-08-12T07:01:59;20.80;97.20
6538;DHT22;3302;52.508;13.454;2023-08-12T07:04:25;20.80;97.30
6538;DHT22;3302;52.508;13.454;2023-08-12T07:06:51;20.90;97.10
6538;DHT22;3302;52.508;13.454;2023-08-12T07:09:16;21.00;96.90
6538;DHT22;3302;52.508;13.454;2023-08-12T07:11:42;21.00;96.80
6538;DHT22;3302;52.508;13.454;2023-08-12T07:14:08;21.10;96.70
6538;DHT22;3302;52.508;13.454;2023-08-12T07:16:34;21.00;96.60
6538;DHT22;3302;52.508;13.454;2023-08-12T07:19:00;21.10;96.90
6538;DHT22;3302;52.508;13.454;2023-08-12T07:21:25;21.10;96.80
6538;DHT22;3302;52.508;13.454;2023-08-12T07:23:52;21.10;96.60
6538;DHT22;3302;52.508;13.454;2023-08-12T07:26:18;21.20;96.70
6538;DHT22;3302;52.508;13.454;2023-08-12T07:28:45;21.40;96.70
6538;DHT22;3302;52.508;13.454;2023-08-12T07:31:10;21.50;96.40
6538;DHT22;3302;52.508;13.454;2023-08-12T07:33:36;21.60;96.40
6538;DHT22;3302;52.508;13.454;2023-08-12T07:36:02;21.60;96.50
6538;DHT22;3302;52.508;13.454;2023-08-12T07:38:29;21.60;96.40
6538;DHT22;3302;52.508;13.454;2023-08-12T07:40:55;21.60;96.40
6538;DHT22;3302;52.508;13.454;2023-08-12T07:43:21;21.70;96.50
6538;DHT22;3302;52.508;13.454;2023-08-12T07:45:51;21.80;96.40
6538;DHT22;3302;52.508;13.454;2023-08-12T07:48:18;21.80;96.40
6538;DHT22;3302;52.508;13.454;2023-08-12T07:50:44;21.90;96.40
6538;DHT22;3302;52.508;13.454;2023-08-12T07:53:10;21.90;96.50
6538;DHT22;3302;52.508;13.454;2023-08-12T07:55:36;22.00;96.70
6538;DHT22;3302;52.508;13.454;2023-08-12T07:58:01;22.10;96.60
6538;DHT22;3302;52.508;13.454;2023-08-12T08:00:28;22.20;96.60
6538;DHT22;3302;52.508;13.454;2023-08-12T08:02:54;22.20;96.40
6538;DHT22;3302;52.508;13.454;2023-08-12T08:05:19;22.20;96.30
6538;DHT22;3302;52.508;13.454;2023-08-12T08:07:45;22.20;96.60
6538;DHT22;3302;52.508;13.454;2023-08-12T08:10:11;22.40;96.70
6538;DHT22;3302;52.508;13.454;2023-08-12T08:12:37;22.40;96.40
6538;DHT22;3302;52.508;13.454;2023-08-12T08:15:03;22.40;96.00
6538;DHT22;3302;52.508;13.454;2023-08-12T08:17:29;22.50;96.20
6538;DHT22;3302;52.508;13.454;2023-08-12T08:19:55;22.50;95.60
6538;DHT22;3302;52.508;13.454;2023-08-12T08:22:21;22.50;96.20
6538;DHT22;3302;52.508;13.454;2023-08-12T08:24:46;22.50;95.90
6538;DHT22;3302;52.508;13.454;2023-08-12T08:27:12;22.50;96.00
6538;DHT22;3302;52.508;13.454;2023-08-12T08:29:39;22.50;95.90
6538;DHT22;3302;52.508;13.454;2023-08-12T08:32:05;22.60;96.10
6538;DHT22;3302;52.508;13.454;2023-08-12T08:34:30;22.60;96.20
6538;DHT22;3302;52.508;13.454;2023-08-12T08:36:56;22.70;96.20
6538;DHT22;3302;52.508;13.454;2023-08-12T08:39:22;22.50;96.10
6538;DHT22;3302;52.508;13.454;2023-08-12T08:41:48;22.50;96.10
6538;DHT22;3302;52.508;13.454;2023-08-12T08:44:15;22.50;96.40
6538;DHT22;3302;52.508;13.454;2023-08-12T08:46:42;22.50;96.50
6538;DHT22;3302;52.508;13.454;2023-08-12T08:49:09;22.50;97.00
6538;DHT22;3302;52.508;13.454;2023-08-12T08:51:35;22.50;97.40
6538;DHT22;3302;52.508;13.454;2023-08-12T08:54:05;22.50;96.90
6538;DHT22;3302;52.508;13.454;2023-08-12T08:56:32;22.50;97.40
6538;DHT22;3302;52.508;13.454;2023-08-12T08:58:58;22.50;97.60
6538;DHT22;3302;52.508;13.454;2023-08-12T09:01:24;22.60;97.50
6538;DHT22;3302;52.508;13.454;2023-08-12T09:03:51;22.60;97.60
6538;DHT22;3302;52.508;13.454;2023-08-12T09:06:20;22.60;98.00
6538;DHT22;3302;52.508;13.454;2023-08-12T09:08:47;22.60;98.50
6538;DHT22;3302;52.508;13.454;2023-08-12T09:11:14;22.60;98.60
6538;DHT22;3302;52.508;13.454;2023-08-12T09:13:42;22.70;98.90
6538;DHT22;3302;52.508;13.454;2023-08-12T09:16:08;22.70;99.00
6538;DHT22;3302;52.508;13.454;2023-08-12T09:18:35;22.70;99.20
6538;DHT22;3302;52.508;13.454;2023-08-12T09:21:02;22.80;99.60
6538;DHT22;3302;52.508;13.454;2023-08-12T09:23:39;22.80;99.00
6538;DHT22;3302;52.508;13.454;2023-08-12T09:26:17;22.80;98.90
6538;DHT22;3302;52.508;13.454;2023-08-12T09:28:43;22.80;98.20
6538;DHT22;3302;52.508;13.454;2023-08-12T09:31:25;22.90;98.10
6538;DHT22;3302;52.508;13.454;2023-08-12T09:33:53;23.00;97.50
6538;DHT22;3302;52.508;13.454;2023-08-12T09:36:21;23.10;97.50
6538;DHT22;3302;52.508;13.454;2023-08-12T09:38:48;23.20;97.10
6538;DHT22;3302;52.508;13.454;2023-08-12T09:41:13;23.30;97.10
6538;DHT22;3302;52.508;13.454;2023-08-12T09:43:43;23.50;97.20
6538;DHT22;3302;52.508;13.454;2023-08-12T09:46:12;23.50;97.30
6538;DHT22;3302;52.508;13.454;2023-08-12T09:48:42;23.50;96.90
6538;DHT22;3302;52.508;13.454;2023-08-12T09:51:08;23.60;96.80
6538;DHT22;3302;52.508;13.454;2023-08-12T09:53:34;23.60;96.80
6538;DHT22;3302;52.508;13.454;2023-08-12T09:56:06;23.60;96.90
6538;DHT22;3302;52.508;13.454;2023-08-12T09:58:34;23.70;97.40
6538;DHT22;3302;52.508;13.454;2023-08-12T10:01:03;23.60;96.40
6538;DHT22;3302;52.508;13.454;2023-08-12T10:03:33;23.70;96.50
6538;DHT22;3302;52.508;13.454;2023-08-12T10:05:59;23.80;96.50
6538;DHT22;3302;52.508;13.454;2023-08-12T10:08:27;24.00;96.50
6538;DHT22;3302;52.508;13.454;2023-08-12T10:10:53;24.10;96.30
6538;DHT22;3302;52.508;13.454;2023-08-12T10:13:21;24.00;95.80
6538;DHT22;3302;52.508;13.454;2023-08-12T10:15:47;24.00;95.70
6538;DHT22;3302;52.508;13.454;2023-08-12T10:18:13;23.90;95.70
6538;DHT22;3302;52.508;13.454;2023-08-12T10:20:40;23.90;95.90
6538;DHT22;3302;52.508;13.454;2023-08-12T10:23:07;24.00;95.90
6538;DHT22;3302;52.508;13.454;2023-08-12T10:25:33;23.90;96.10
6538;DHT22;3302;52.508;13.454;2023-08-12T10:28:00;24.00;96.30
6538;DHT22;3302;52.508;13.454;2023-08-12T10:30:30;24.00;96.00
6538;DHT22;3302;52.508;13.454;2023-08-12T10:32:58;24.10;96.10
6538;DHT22;3302;52.508;13.454;2023-08-12T10:35:44;24.20;96.30
6538;DHT22;3302;52.508;13.454;2023-08-12T10:38:13;24.20;95.90
6538;DHT22;3302;52.508;13.454;2023-08-12T10:40:39;24.20;96.10
6538;DHT22;3302;52.508;13.454;2023-08-12T10:43:05;24.40;96.10
6538;DHT22;3302;52.508;13.454;2023-08-12T10:45:47;24.30;96.10
6538;DHT22;3302;52.508;13.454;2023-08-12T10:48:23;24.40;96.20
6538;DHT22;3302;52.508;13.454;2023-08-12T10:50:53;24.40;95.80
6538;DHT22;3302;52.508;13.454;2023-08-12T10:53:28;24.50;96.20
6538;DHT22;3302;52.508;13.454;2023-08-12T10:56:02;24.60;96.40
6538;DHT22;3302;52.508;13.454;2023-08-12T10:58:36;24.70;96.40
6538;DHT22;3302;52.508;13.454;2023-08-12T11:01:13;24.70;96.60
6538;DHT22;3302;52.508;13.454;2023-08-12T11:03:42;24.70;96.40
6538;DHT22;3302;52.508;13.454;2023-08-12T11:06:10;24.70;96.50
6538;DHT22;3302;52.508;13.454;2023-08-12T11:08:36;24.70;96.50
6538;DHT22;3302;52.508;13.454;2023-08-12T11:11:02;24.80;96.60
6538;DHT22;3302;52.508;13.454;2023-08-12T11:13:28;24.80;96.60
6538;DHT22;3302;52.508;13.454;2023-08-12T11:16:06;24.90;96.80
6538;DHT22;3302;52.508;13.454;2023-08-12T11:18:33;25.00;96.60
6538;DHT22;3302;52.508;13.454;2023-08-12T11:20:59;25.00;96.70
6538;DHT22;3302;52.508;13.454;2023-08-12T11:23:25;25.10;96.20
6538;DHT22;3302;52.508;13.454;2023-08-12T11:25:51;25.20;96.00
6538;DHT22;3302;52.508;13.454;2023-08-12T11:28:18;25.20;95.60
6538;DHT22;3302;52.508;13.454;2023-08-12T11:30:46;25.30;95.70
6538;DHT22;3302;52.508;13.454;2023-08-12T11:33:12;25.20;95.80
6538;DHT22;3302;52.508;13.454;2023-08-12T11:35:38;25.20;95.30
6538;DHT22;3302;52.508;13.454;2023-08-12T11:38:05;25.20;95.00
6538;DHT22;3302;52.508;13.454;2023-08-12T11:40:33;25.20;95.30
6538;DHT22;3302;52.508;13.454;2023-08-12T11:42:59;25.10;94.90
6538;DHT22;3302;52.508;13.454;2023-08-12T11:45:25;25.10;95.10
6538;DHT22;3302;52.508;13.454;2023-08-12T11:47:52;25.10;94.70
6538;DHT22;3302;52.508;13.454;2023-08-12T11:50:23;25.10;94.90
6538;DHT22;3302;52.508;13.454;2023-08-12T11:52:50;25.00;94.50
6538;DHT22;3302;52.508;13.454;2023-08-12T11:55:16;25.00;93.80
6538;DHT22;3302;52.508;13.454;2023-08-12T11:57:43;25.00;93.80
6538;DHT22;3302;52.508;13.454;2023-08-12T12:00:12;25.00;93.70
6538;DHT22;3302;52.508;13.454;2023-08-12T12:02:50;24.90;93.80
6538;DHT22;3302;52.508;13.454;2023-08-12T12:05:20;24.80;94.10
6538;DHT22;3302;52.508;13.454;2023-08-12T12:07:48;24.80;94.40
6538;DHT22;3302;52.508;13.454;2023-08-12T12:10:52;24.80;94.60
6538;DHT22;3302;52.508;13.454;2023-08-12T12:13:10;24.90;95.10
6538;DHT22;3302;52.508;13.454;2023-08-12T12:15:41;25.00;95.40
6538;DHT22;3302;52.508;13.454;2023-08-12T12:18:12;24.90;95.00
6538;DHT22;3302;52.508;13.454;2023-08-12T12:21:03;24.80;94.80
6538;DHT22;3302;52.508;13.454;2023-08-12T12:23:29;24.80;95.00
6538;DHT22;3302;52.508;13.454;2023-08-12T12:26:02;24.80;95.40
6538;DHT22;3302;52.508;13.454;2023-08-12T12:28:28;24.70;95.70
6538;DHT22;3302;52.508;13.454;2023-08-12T12:30:54;24.60;96.20
6538;DHT22;3302;52.508;13.454;2023-08-12T12:33:20;24.50;95.90
6538;DHT22;3302;52.508;13.454;2023-08-12T12:35:45;24.50;96.30
6538;DHT22;3302;52.508;13.454;2023-08-12T12:38:11;24.50;96.20
6538;DHT22;3302;52.508;13.454;2023-08-12T12:40:37;24.40;96.50
6538;DHT22;3302;52.508;13.454;2023-08-12T12:43:04;24.40;96.50
6538;DHT22;3302;52.508;13.454;2023-08-12T12:45:30;24.30;96.50
6538;DHT22;3302;52.508;13.454;2023-08-12T12:47:56;24.30;96.90
6538;DHT22;3302;52.508;13.454;2023-08-12T12:50:21;24.40;97.10
6538;DHT22;3302;52.508;13.454;2023-08-12T12:52:47;24.40;96.40
6538;DHT22;3302;52.508;13.454;2023-08-12T12:55:13;24.40;96.70
6538;DHT22;3302;52.508;13.454;2023-08-12T12:57:39;24.60;96.50
6538;DHT22;3302;52.508;13.454;2023-08-12T13:00:05;24.70;96.50
6538;DHT22;3302;52.508;13.454;2023-08-12T13:02:34;24.80;96.60
6538;DHT22;3302;52.508;13.454;2023-08-12T13:05:00;24.80;96.60
6538;DHT22;3302;52.508;13.454;2023-08-12T13:07:26;24.80;96.70
6538;DHT22;3302;52.508;13.454;2023-08-12T13:09:52;24.80;96.70
6538;DHT22;3302;52.508;13.454;2023-08-12T13:12:17;24.80;97.00
6538;DHT22;3302;52.508;13.454;2023-08-12T13:14:43;24.80;96.90
6538;DHT22;3302;52.508;13.454;2023-08-12T13:17:09;25.10;96.80
6538;DHT22;3302;52.508;13.454;2023-08-12T13:19:35;25.10;96.40
6538;DHT22;3302;52.508;13.454;2023-08-12T13:22:00;25.10;96.60
6538;DHT22;3302;52.508;13.454;2023-08-12T13:24:27;25.20;96.40
6538;DHT22;3302;52.508;13.454;2023-08-12T13:26:53;25.30;96.00
6538;DHT22;3302;52.508;13.454;2023-08-12T13:29:20;25.30;95.90
6538;DHT22;3302;52.508;13.454;2023-08-12T13:31:46;25.40;95.60
6538;DHT22;3302;52.508;13.454;2023-08-12T13:34:11;25.50;95.30
6538;DHT22;3302;52.508;13.454;2023-08-12T13:36:38;25.60;95.10
6538;DHT22;3302;52.508;13.454;2023-08-12T13:39:04;25.70;95.30
6538;DHT22;3302;52.508;13.454;2023-08-12T13:41:30;25.80;95.20
6538;DHT22;3302;52.508;13.454;2023-08-12T13:43:56;25.90;95.00
6538;DHT22;3302;52.508;13.454;2023-08-12T13:46:21;26.00;94.80
6538;DHT22;3302;52.508;13.454;2023-08-12T13:48:47;26.00;94.90
6538;DHT22;3302;52.508;13.454;2023-08-12T13:51:13;26.00;94.30
6538;DHT22;3302;52.508;13.454;2023-08-12T13:53:39;26.10;94.50
6538;DHT22;3302;52.508;13.454;2023-08-12T13:56:05;26.20;94.10
6538;DHT22;3302;52.508;13.454;2023-08-12T13:58:31;26.10;93.50
6538;DHT22;3302;52.508;13.454;2023-08-12T14:00:56;26.20;93.60
6538;DHT22;3302;52.508;13.454;2023-08-12T14:03:23;26.50;93.40
6538;DHT22;3302;52.508;13.454;2023-08-12T14:05:48;26.70;93.10
6538;DHT22;3302;52.508;13.454;2023-08-12T14:08:14;26.70;92.50
6538;DHT22;3302;52.508;13.454;2023-08-12T14:10:40;26.60;92.60
6538;DHT22;3302;52.508;13.454;2023-08-12T14:13:06;26.80;92.00
6538;DHT22;3302;52.508;13.454;2023-08-12T14:15:32;26.70;91.70
6538;DHT22;3302;52.508;13.454;2023-08-12T14:17:58;26.80;90.40
6538;DHT22;3302;52.508;13.454;2023-08-12T14:20:23;26.90;90.00
6538;DHT22;3302;52.508;13.454;2023-08-12T14:22:49;26.90;89.80
6538;DHT22;3302;52.508;13.454;2023-08-12T14:25:15;26.90;90.20
6538;DHT22;3302;52.508;13.454;2023-08-12T14:27:41;26.80;89.50
6538;DHT22;3302;52.508;13.454;2023-08-12T14:30:07;26.90;90.00
6538;DHT22;3302;52.508;13.454;2023-08-12T14:32:36;26.90;88.30
6538;DHT22;3302;52.508;13.454;2023-08-12T14:35:03;26.90;87.90
6538;DHT22;3302;52.508;13.454;2023-08-12T14:37:29;26.90;88.50
6538;DHT22;3302;52.508;13.454;2023-08-12T14:39:55;26.70;88.70
6538;DHT22;3302;52.508;13.454;2023-08-12T14:42:21;26.80;89.20
6538;DHT22;3302;52.508;13.454;2023-08-12T14:44:47;26.90;89.10
6538;DHT22;3302;52.508;13.454;2023-08-12T14:47:13;27.00;88.90
6538;DHT22;3302;52.508;13.454;2023-08-12T14:49:38;27.10;88.90
6538;DHT22;3302;52.508;13.454;2023-08-12T14:52:04;27.20;89.20
6538;DHT22;3302;52.508;13.454;2023-08-12T14:54:30;27.30;89.40
6538;DHT22;3302;52.508;13.454;2023-08-12T14:56:56;27.30;88.70
6538;DHT22;3302;52.508;13.454;2023-08-12T14:59:22;27.50;88.90
6538;DHT22;3302;52.508;13.454;2023-08-12T15:01:47;27.60;87.10
6538;DHT22;3302;52.508;13.454;2023-08-12T15:04:13;27.90;87.10
6538;DHT22;3302;52.508;13.454;2023-08-12T15:06:39;27.80;85.30
6538;DHT22;3302;52.508;13.454;2023-08-12T15:09:05;27.80;86.30
6538;DHT22;3302;52.508;13.454;2023-08-12T15:11:31;27.90;87.00
6538;DHT22;3302;52.508;13.454;2023-08-12T15:13:57;28.00;86.70
6538;DHT22;3302;52.508;13.454;2023-08-12T15:16:23;28.10;87.40
6538;DHT22;3302;52.508;13.454;2023-08-12T15:18:48;27.90;86.30
6538;DHT22;3302;52.508;13.454;2023-08-12T15:21:14;27.70;87.20
6538;DHT22;3302;52.508;13.454;2023-08-12T15:23:41;27.60;87.50
6538;DHT22;3302;52.508;13.454;2023-08-12T15:26:07;27.40;87.20
6538;DHT22;3302;52.508;13.454;2023-08-12T15:28:33;27.30;87.90
6538;DHT22;3302;52.508;13.454;2023-08-12T15:30:59;27.40;88.60
6538;DHT22;3302;52.508;13.454;2023-08-12T15:33:25;27.50;88.20
6538;DHT22;3302;52.508;13.454;2023-08-12T15:35:51;27.30;87.80
6538;DHT22;3302;52.508;13.454;2023-08-12T15:38:16;27.20;88.20
6538;DHT22;3302;52.508;13.454;2023-08-12T15:40:42;27.30;89.50
6538;DHT22;3302;52.508;13.454;2023-08-12T15:43:08;27.30;88.40
6538;DHT22;3302;52.508;13.454;2023-08-12T15:45:36;27.10;89.00